createdAt,value
2023-01-11T00:03:57.749Z,11.00
2023-01-11T00:09:00.095Z,11.00
2023-01-11T00:14:05.113Z,11.00
2023-01-11T00:19:10.615Z,10.90
2023-01-11T00:24:18.548Z,10.90
2023-01-11T00:29:20.722Z,10.90
2023-01-11T00:34:24.773Z,10.80
2023-01-11T00:39:27.330Z,10.70
2023-01-11T00:44:52.785Z,10.70
2023-01-11T00:49:56.221Z,10.70
2023-01-11T00:55:00.590Z,10.70
2023-01-11T01:00:04.213Z,10.40
2023-01-11T01:05:07.386Z,10.20
2023-01-11T01:10:10.759Z,10.10
2023-01-11T01:15:12.894Z,10.00
2023-01-11T01:20:15.777Z,10.00
2023-01-11T01:25:18.399Z,10.10
2023-01-11T01:30:20.760Z,10.10
2023-01-11T01:35:23.037Z,10.00
2023-01-11T01:40:25.209Z,10.00
2023-01-11T01:45:29.231Z,9.90
2023-01-11T01:50:39.181Z,9.90
2023-01-11T01:55:45.717Z,9.80
2023-01-11T02:00:48.121Z,9.70
2023-01-11T02:05:54.871Z,9.70
2023-01-11T02:10:57.975Z,9.70
2023-01-11T02:16:09.387Z,9.60
2023-01-11T02:21:52.776Z,9.50
2023-01-11T02:27:22.083Z,9.60
2023-01-11T02:32:56.582Z,9.70
2023-01-11T02:38:07.882Z,9.60
2023-01-11T02:43:42.479Z,9.60
2023-01-11T02:49:18.935Z,9.50
2023-01-11T02:54:24.315Z,9.50
2023-01-11T02:59:39.183Z,9.40
2023-01-11T03:04:48.169Z,9.40
2023-01-11T03:10:29.609Z,9.30
2023-01-11T03:16:10.099Z,9.40
2023-01-11T03:21:22.369Z,9.40
2023-01-11T03:26:44.177Z,9.30
2023-01-11T03:32:42.503Z,9.20
2023-01-11T03:38:11.619Z,9.10
2023-01-11T03:44:07.752Z,8.90
2023-01-11T03:49:48.546Z,8.90
2023-01-11T04:02:07.627Z,8.60
2023-01-11T04:12:38.047Z,8.60
2023-01-11T04:18:07.268Z,8.50
2023-01-11T04:23:12.301Z,8.50
2023-01-11T04:28:17.098Z,8.50
2023-01-11T04:33:27.898Z,8.60
2023-01-11T04:38:35.025Z,8.70
2023-01-11T04:43:43.178Z,8.80
2023-01-11T04:48:47.269Z,8.70
2023-01-11T04:53:50.061Z,8.60
2023-01-11T04:58:54.341Z,8.60
2023-01-11T05:04:27.504Z,8.60
2023-01-11T05:09:35.857Z,8.70
2023-01-11T05:21:08.603Z,8.70
2023-01-11T05:26:24.702Z,8.50
2023-01-11T05:31:29.931Z,8.40
2023-01-11T05:36:39.478Z,8.30
2023-01-11T05:41:42.981Z,8.30
2023-01-11T05:46:47.747Z,8.20
2023-01-11T05:51:51.580Z,8.10
2023-01-11T05:57:00.226Z,8.10
2023-01-11T06:02:18.979Z,8.10
2023-01-11T06:07:25.696Z,8.10
2023-01-11T06:12:30.999Z,8.00
2023-01-11T06:17:40.794Z,8.00
2023-01-11T06:22:43.977Z,7.90
2023-01-11T06:27:53.007Z,7.90
2023-01-11T06:33:05.515Z,7.90
2023-01-11T06:38:14.094Z,7.90
2023-01-11T06:43:16.584Z,8.00
2023-01-11T06:48:52.099Z,8.00
2023-01-11T06:54:05.499Z,8.00
2023-01-11T07:04:33.897Z,7.90
2023-01-11T07:09:53.949Z,7.80
2023-01-11T07:15:05.308Z,7.80
2023-01-11T07:20:24.224Z,7.80
2023-01-11T07:25:37.183Z,7.80
2023-01-11T07:30:58.080Z,7.80
2023-01-11T07:36:09.033Z,7.70
2023-01-11T07:41:33.269Z,7.70
2023-01-11T07:46:52.539Z,7.90
2023-01-11T07:51:58.182Z,8.00
2023-01-11T07:57:03.479Z,8.00
2023-01-11T08:02:10.253Z,7.90
2023-01-11T08:07:15.173Z,7.90
2023-01-11T08:24:52.773Z,7.70
2023-01-11T08:30:12.874Z,7.60
2023-01-11T08:35:29.145Z,7.70
2023-01-11T08:46:34.279Z,7.80
2023-01-11T08:51:40.900Z,7.80
2023-01-11T08:56:47.581Z,7.90
2023-01-11T09:01:53.235Z,8.00
2023-01-11T09:07:02.983Z,8.00
2023-01-11T09:12:07.294Z,8.20
2023-01-11T09:17:12.143Z,8.30
2023-01-11T09:22:18.208Z,8.40
2023-01-11T09:27:22.384Z,8.50
2023-01-11T09:32:25.234Z,8.60
2023-01-11T09:37:27.638Z,8.80
2023-01-11T09:42:39.834Z,8.90
2023-01-11T09:48:11.753Z,9.10
2023-01-11T09:53:28.219Z,9.40
2023-01-11T09:58:50.586Z,9.60
2023-01-11T10:04:06.287Z,9.80
2023-01-11T10:18:26.284Z,10.20
2023-01-11T10:21:29.497Z,10.40
2023-01-11T10:27:08.265Z,10.50
2023-01-11T10:32:39.266Z,10.60
2023-01-11T10:38:05.419Z,10.60
2023-01-11T10:43:22.193Z,10.60
2023-01-11T10:48:43.533Z,10.70
2023-01-11T10:54:02.207Z,10.80
2023-01-11T10:59:21.571Z,10.90
2023-01-11T11:04:51.477Z,11.00
2023-01-11T11:10:39.225Z,11.00
2023-01-11T11:16:14.244Z,11.20
2023-01-11T11:21:23.597Z,11.30
2023-01-11T11:26:47.176Z,11.50
2023-01-11T11:31:53.690Z,11.50
2023-01-11T11:42:23.323Z,11.60
2023-01-11T11:47:40.757Z,11.70
2023-01-11T11:52:52.432Z,11.70
2023-01-11T11:58:04.063Z,11.60
2023-01-11T12:03:22.394Z,11.70
2023-01-11T12:08:35.637Z,11.70
2023-01-11T12:13:45.216Z,11.90
2023-01-11T12:18:49.304Z,12.00
2023-01-11T12:24:17.424Z,12.00
2023-01-11T12:29:33.908Z,12.00
2023-01-11T12:35:01.831Z,12.10
2023-01-11T12:40:29.002Z,12.20
2023-01-11T12:46:02.844Z,12.20
2023-01-11T12:51:43.159Z,12.20
2023-01-11T12:57:03.900Z,12.20
2023-01-11T13:02:59.573Z,12.20
2023-01-11T13:08:39.999Z,12.20
2023-01-11T13:14:20.112Z,12.10
2023-01-11T13:19:48.761Z,12.20
2023-01-11T13:25:06.151Z,12.20
2023-01-11T13:30:19.520Z,12.10
2023-01-11T13:35:59.643Z,12.30
2023-01-11T13:41:47.993Z,12.40
2023-01-11T13:47:30.599Z,12.30
2023-01-11T13:52:58.629Z,12.20
2023-01-11T13:58:13.271Z,12.10
2023-01-11T14:09:07.624Z,12.10
2023-01-11T14:15:00.747Z,12.10
2023-01-11T14:20:44.237Z,12.10
2023-01-11T14:26:34.036Z,12.10
2023-01-11T14:32:07.827Z,12.00
2023-01-11T14:37:52.099Z,12.00
2023-01-11T14:43:26.155Z,11.90
2023-01-11T14:48:50.524Z,11.80
2023-01-11T14:54:45.405Z,11.80
2023-01-11T14:59:55.163Z,11.80
2023-01-11T15:05:00.092Z,11.90
2023-01-11T15:10:30.520Z,11.90
2023-01-11T15:15:54.727Z,11.90
2023-01-11T15:21:07.315Z,11.90
2023-01-11T15:26:10.598Z,11.90
2023-01-11T15:31:35.072Z,11.80
2023-01-11T15:37:26.321Z,11.70
2023-01-11T15:42:31.731Z,11.60
2023-01-11T15:47:49.781Z,11.60
2023-01-11T15:53:26.025Z,11.60
2023-01-11T15:59:08.164Z,11.50
2023-01-11T16:04:56.214Z,11.50
2023-01-11T16:10:13.199Z,11.50
2023-01-11T16:15:31.849Z,11.50
2023-01-11T16:20:36.469Z,11.50
2023-01-11T16:25:47.062Z,11.50
2023-01-11T16:31:08.018Z,11.50
2023-01-11T16:36:50.309Z,11.50
2023-01-11T16:42:10.184Z,11.50
2023-01-11T16:47:20.402Z,11.60
2023-01-11T16:52:38.436Z,11.50
2023-01-11T16:57:47.639Z,11.10
2023-01-11T17:03:19.540Z,11.00
2023-01-11T17:08:30.222Z,10.90
2023-01-11T17:13:55.372Z,11.00
2023-01-11T17:19:06.302Z,11.10
2023-01-11T17:24:13.006Z,11.10
2023-01-11T17:29:25.424Z,11.10
2023-01-11T17:34:32.713Z,11.00
2023-01-11T17:39:39.017Z,10.90
2023-01-11T17:45:00.410Z,10.90
2023-01-11T17:50:04.333Z,10.80
2023-01-11T17:55:20.238Z,10.80
2023-01-11T18:00:29.760Z,10.80
2023-01-11T18:05:32.147Z,10.80
2023-01-11T18:10:38.396Z,10.90
2023-01-11T18:15:40.707Z,11.00
2023-01-11T18:20:43.163Z,11.10
2023-01-11T18:25:48.588Z,11.10
2023-01-11T18:30:56.456Z,11.10
2023-01-11T18:36:03.214Z,11.10
2023-01-11T18:41:30.400Z,11.10
2023-01-11T18:46:32.748Z,11.10
2023-01-11T18:51:41.760Z,11.00
2023-01-11T18:56:44.468Z,10.90
2023-01-11T19:01:56.509Z,10.90
2023-01-11T19:07:07.048Z,10.90
2023-01-11T19:12:09.238Z,10.90
2023-01-11T19:17:12.539Z,10.90
2023-01-11T19:22:14.823Z,10.90
2023-01-11T19:27:17.307Z,11.00
2023-01-11T19:32:23.960Z,11.00
2023-01-11T19:37:27.950Z,11.00
2023-01-11T19:42:30.380Z,11.00
2023-01-11T19:47:33.006Z,11.10
2023-01-11T19:52:51.459Z,11.10
2023-01-11T20:03:16.697Z,11.30
2023-01-11T20:08:27.537Z,11.40
2023-01-11T20:13:32.530Z,11.40
2023-01-11T20:18:45.587Z,11.50
2023-01-11T20:23:53.306Z,11.40
2023-01-11T20:28:57.487Z,11.50
2023-01-11T20:34:14.396Z,11.50
2023-01-11T20:39:17.693Z,11.50
2023-01-11T20:44:26.687Z,11.50
2023-01-11T20:49:30.402Z,11.60
2023-01-11T20:54:33.557Z,11.60
2023-01-11T20:59:35.792Z,11.60
2023-01-11T21:04:38.062Z,11.50
2023-01-11T21:09:41.051Z,11.50
2023-01-11T21:14:44.587Z,11.50
2023-01-11T21:19:50.048Z,11.50
2023-01-11T21:24:55.723Z,11.50
2023-01-11T21:30:00.704Z,11.60
2023-01-11T21:35:03.053Z,11.60
2023-01-11T21:40:08.347Z,11.60
2023-01-11T21:45:11.697Z,11.60
2023-01-11T21:50:15.657Z,11.60
2023-01-11T21:55:18.838Z,11.50
2023-01-11T22:00:24.329Z,11.60
2023-01-11T22:05:26.571Z,11.60
2023-01-11T22:10:32.189Z,11.60
2023-01-11T22:15:37.271Z,11.50
2023-01-11T22:20:41.805Z,11.50
2023-01-11T22:25:43.972Z,11.60
2023-01-11T22:30:54.436Z,11.60
2023-01-11T22:36:16.893Z,11.70
2023-01-11T22:41:20.524Z,11.70
2023-01-11T22:46:25.384Z,11.70
2023-01-11T22:51:27.601Z,11.60
2023-01-11T22:56:29.888Z,11.50
2023-01-11T23:01:37.899Z,11.40
2023-01-11T23:06:43.245Z,11.40
2023-01-11T23:12:04.609Z,11.40
2023-01-11T23:17:07.436Z,11.40
2023-01-11T23:22:10.100Z,11.30
2023-01-11T23:27:12.560Z,11.20
2023-01-11T23:32:17.801Z,11.30
2023-01-11T23:37:27.722Z,11.20
2023-01-11T23:42:30.117Z,11.20
2023-01-11T23:47:33.692Z,11.10
2023-01-11T23:52:36.446Z,10.90
2023-01-11T23:57:58.566Z,10.90
